createdAt,value
2019-01-18T00:01:17.713Z,20.60
2019-01-18T00:03:50.025Z,20.70
2019-01-18T00:06:22.089Z,20.50
2019-01-18T00:08:54.611Z,20.50
2019-01-18T00:11:26.613Z,20.50
2019-01-18T00:13:58.757Z,20.70
2019-01-18T00:16:30.892Z,20.70
2019-01-18T00:19:03.408Z,20.70
2019-01-18T00:21:35.863Z,20.70
2019-01-18T00:24:07.979Z,20.70
2019-01-18T00:26:40.254Z,20.80
2019-01-18T00:29:13.697Z,20.80
2019-01-18T00:31:45.832Z,20.90
2019-01-18T00:34:17.901Z,21.00
2019-01-18T00:36:50.176Z,21.00
2019-01-18T00:39:22.529Z,20.90
2019-01-18T00:41:54.845Z,21.20
2019-01-18T00:44:26.982Z,21.30
2019-01-18T00:46:59.969Z,21.50
2019-01-18T00:49:32.032Z,21.30
2019-01-18T00:52:04.174Z,21.20
2019-01-18T00:54:36.224Z,21.30
2019-01-18T00:57:08.390Z,21.70
2019-01-18T00:59:40.509Z,22.00
2019-01-18T01:02:24.896Z,22.10
2019-01-18T01:04:57.347Z,22.30
2019-01-18T01:07:29.667Z,22.70
2019-01-18T01:10:02.449Z,22.40
2019-01-18T01:12:34.642Z,22.30
2019-01-18T01:15:10.350Z,22.70
2019-01-18T01:17:42.767Z,23.10
2019-01-18T01:20:18.149Z,23.00
2019-01-18T01:22:50.299Z,22.90
2019-01-18T01:25:22.618Z,22.80
2019-01-18T01:27:54.872Z,22.50
2019-01-18T01:30:27.769Z,22.40
2019-01-18T01:33:00.313Z,22.60
2019-01-18T01:35:32.840Z,22.50
2019-01-18T01:38:05.283Z,22.40
2019-01-18T01:40:37.921Z,22.50
2019-01-18T01:43:10.294Z,22.70
2019-01-18T01:45:44.134Z,22.60
2019-01-18T01:48:16.808Z,23.50
2019-01-18T01:50:49.221Z,24.10
2019-01-18T01:53:21.368Z,24.40
2019-01-18T01:55:53.396Z,23.70
2019-01-18T01:58:25.836Z,23.50
2019-01-18T02:00:57.760Z,23.60
2019-01-18T02:03:29.827Z,23.70
2019-01-18T02:06:02.136Z,23.30
2019-01-18T02:08:34.446Z,23.50
2019-01-18T02:11:07.008Z,23.60
2019-01-18T02:13:39.486Z,24.20
2019-01-18T02:16:12.003Z,25.00
2019-01-18T02:18:44.241Z,25.60
2019-01-18T02:21:16.814Z,25.80
2019-01-18T02:23:49.404Z,26.20
2019-01-18T02:26:21.561Z,25.70
2019-01-18T02:28:53.713Z,24.90
2019-01-18T02:31:25.753Z,23.70
2019-01-18T02:33:57.930Z,24.30
2019-01-18T02:36:29.959Z,24.80
2019-01-18T02:39:02.403Z,24.70
2019-01-18T02:41:36.062Z,24.60
2019-01-18T02:44:08.546Z,24.40
2019-01-18T02:46:40.833Z,24.60
2019-01-18T02:49:13.289Z,24.00
2019-01-18T02:51:45.403Z,24.20
2019-01-18T02:54:17.622Z,24.70
2019-01-18T02:56:49.719Z,25.10
2019-01-18T02:59:21.957Z,25.60
2019-01-18T03:01:53.973Z,26.30
2019-01-18T03:04:27.800Z,26.30
2019-01-18T03:07:00.131Z,26.40
2019-01-18T03:09:32.583Z,26.30
2019-01-18T03:12:04.611Z,26.10
2019-01-18T03:14:36.815Z,26.70
2019-01-18T03:17:08.907Z,27.10
2019-01-18T03:19:41.310Z,26.40
2019-01-18T03:22:13.443Z,26.60
2019-01-18T03:24:46.115Z,26.40
2019-01-18T03:27:18.130Z,26.80
2019-01-18T03:29:50.464Z,26.60
2019-01-18T03:32:22.642Z,26.40
2019-01-18T03:34:55.126Z,26.40
2019-01-18T03:37:27.372Z,27.00
2019-01-18T03:39:59.864Z,27.80
2019-01-18T03:42:31.930Z,27.50
2019-01-18T03:45:04.073Z,28.00
2019-01-18T03:47:36.010Z,27.80
2019-01-18T03:50:10.672Z,27.10
2019-01-18T03:52:42.919Z,26.80
2019-01-18T03:55:15.174Z,26.40
2019-01-18T03:57:47.292Z,27.00
2019-01-18T04:00:26.280Z,27.20
2019-01-18T04:02:55.553Z,26.90
2019-01-18T04:05:28.351Z,27.40
2019-01-18T04:08:00.479Z,26.00
2019-01-18T04:10:33.025Z,26.60
2019-01-18T04:13:05.178Z,27.50
2019-01-18T04:15:37.420Z,28.20
2019-01-18T04:18:09.710Z,28.70
2019-01-18T04:20:41.872Z,28.30
2019-01-18T04:23:14.048Z,28.00
2019-01-18T04:25:46.516Z,28.10
2019-01-18T04:28:18.775Z,28.60
2019-01-18T04:30:50.915Z,28.80
2019-01-18T04:33:22.833Z,28.80
2019-01-18T04:35:54.991Z,28.60
2019-01-18T04:38:27.059Z,29.40
2019-01-18T04:40:59.318Z,29.80
2019-01-18T04:43:31.603Z,29.90
2019-01-18T04:46:03.756Z,29.10
2019-01-18T04:48:36.058Z,29.40
2019-01-18T04:51:08.223Z,29.90
2019-01-18T04:53:40.491Z,29.90
2019-01-18T04:56:12.586Z,29.70
2019-01-18T04:58:44.494Z,29.40
2019-01-18T05:01:16.647Z,29.60
2019-01-18T05:03:48.799Z,29.40
2019-01-18T05:06:21.054Z,29.90
2019-01-18T05:08:53.677Z,30.10
2019-01-18T05:11:26.102Z,30.40
2019-01-18T05:13:58.121Z,30.00
2019-01-18T05:16:30.599Z,30.10
2019-01-18T05:19:03.126Z,29.80
2019-01-18T05:21:35.617Z,30.40
2019-01-18T05:24:07.820Z,30.60
2019-01-18T05:26:40.318Z,29.80
2019-01-18T05:29:12.356Z,29.90
2019-01-18T05:31:44.531Z,29.50
2019-01-18T05:34:16.600Z,30.10
2019-01-18T05:36:49.335Z,30.80
2019-01-18T05:39:21.617Z,30.50
2019-01-18T05:41:53.830Z,31.00
2019-01-18T05:44:26.336Z,31.10
2019-01-18T05:46:58.595Z,30.40
2019-01-18T05:49:30.723Z,29.90
2019-01-18T05:52:03.215Z,30.60
2019-01-18T05:54:35.289Z,31.10
2019-01-18T05:57:07.845Z,31.00
2019-01-18T05:59:39.844Z,31.00
2019-01-18T06:02:12.221Z,31.20
2019-01-18T06:04:45.531Z,31.10
2019-01-18T06:07:18.361Z,31.30
2019-01-18T06:09:51.030Z,31.30
2019-01-18T06:12:23.309Z,31.50
2019-01-18T06:14:55.380Z,31.30
2019-01-18T06:17:27.845Z,31.70
2019-01-18T06:19:59.930Z,31.60
2019-01-18T06:22:32.216Z,31.40
2019-01-18T06:25:04.247Z,31.50
2019-01-18T06:27:36.450Z,31.80
2019-01-18T06:30:11.407Z,31.70
2019-01-18T06:32:44.336Z,31.80
2019-01-18T06:35:16.728Z,32.20
2019-01-18T06:37:49.198Z,32.00
2019-01-18T06:40:23.753Z,32.30
2019-01-18T06:42:56.071Z,32.70
2019-01-18T06:45:30.589Z,32.90
2019-01-18T06:48:03.004Z,32.00
2019-01-18T06:50:35.163Z,32.40
2019-01-18T06:53:07.726Z,32.60
2019-01-18T06:55:40.124Z,32.10
2019-01-18T06:58:12.193Z,32.00
2019-01-18T07:00:44.726Z,32.20
2019-01-18T07:03:17.074Z,32.60
2019-01-18T07:05:49.606Z,31.60
2019-01-18T07:08:22.515Z,31.10
2019-01-18T07:10:55.024Z,32.00
2019-01-18T07:13:27.670Z,32.50
2019-01-18T07:16:01.860Z,32.50
2019-01-18T07:18:34.889Z,33.00
2019-01-18T07:21:07.361Z,31.60
2019-01-18T07:23:39.569Z,31.10
2019-01-18T07:26:12.109Z,31.80
2019-01-18T07:28:44.393Z,31.30
2019-01-18T07:31:16.835Z,31.80
2019-01-18T07:33:48.871Z,32.20
2019-01-18T07:36:21.531Z,32.60
2019-01-18T07:38:53.587Z,32.90
2019-01-18T07:41:25.829Z,31.70
2019-01-18T07:43:57.861Z,31.70
2019-01-18T07:46:30.369Z,32.20
2019-01-18T07:49:03.055Z,32.50
2019-01-18T07:51:35.651Z,32.60
2019-01-18T07:54:07.893Z,32.90
2019-01-18T07:56:40.253Z,32.80
2019-01-18T07:59:12.689Z,32.50
2019-01-18T08:01:45.626Z,32.30
2019-01-18T08:04:17.744Z,32.30
2019-01-18T08:06:49.858Z,32.60
2019-01-18T08:09:22.054Z,31.40
2019-01-18T08:11:54.339Z,31.50
2019-01-18T08:14:26.289Z,31.70
2019-01-18T08:16:58.623Z,32.00
2019-01-18T08:19:31.074Z,32.40
2019-01-18T08:22:03.202Z,32.30
2019-01-18T08:24:35.570Z,32.40
2019-01-18T08:27:07.718Z,32.50
2019-01-18T08:29:40.266Z,32.60
2019-01-18T08:32:12.344Z,32.00
2019-01-18T08:34:44.892Z,32.50
2019-01-18T08:37:17.057Z,32.50
2019-01-18T08:39:49.399Z,32.40
2019-01-18T08:42:21.743Z,32.50
2019-01-18T08:44:53.950Z,32.00
2019-01-18T08:47:25.980Z,31.90
2019-01-18T08:49:58.528Z,32.00
2019-01-18T08:52:31.079Z,31.70
2019-01-18T08:55:03.357Z,32.10
2019-01-18T08:57:35.539Z,31.80
2019-01-18T09:00:10.295Z,31.90
2019-01-18T09:02:42.825Z,31.60
2019-01-18T09:05:17.453Z,32.00
2019-01-18T09:07:49.530Z,31.80
2019-01-18T09:10:24.185Z,31.50
2019-01-18T09:12:56.540Z,31.70
2019-01-18T09:15:29.568Z,31.80
2019-01-18T09:18:01.835Z,31.80
2019-01-18T09:20:34.356Z,31.80
2019-01-18T09:23:06.673Z,31.40
2019-01-18T09:25:39.254Z,31.10
2019-01-18T09:28:11.468Z,30.90
2019-01-18T09:30:43.592Z,30.90
2019-01-18T09:33:16.398Z,30.80
2019-01-18T09:35:49.217Z,31.00
2019-01-18T09:38:21.385Z,30.80
2019-01-18T09:40:53.668Z,30.60
2019-01-18T09:43:25.644Z,30.70
2019-01-18T09:45:57.789Z,30.80
2019-01-18T09:48:30.135Z,30.70
2019-01-18T09:51:02.462Z,30.40
2019-01-18T09:53:34.680Z,30.00
2019-01-18T09:56:07.165Z,29.80
2019-01-18T09:58:40.029Z,29.60
2019-01-18T10:01:12.248Z,29.50
2019-01-18T10:03:44.606Z,29.50
2019-01-18T10:06:16.817Z,29.60
2019-01-18T10:08:48.936Z,29.60
2019-01-18T10:11:21.448Z,29.60
2019-01-18T10:13:53.812Z,29.50
2019-01-18T10:16:26.459Z,29.40
2019-01-18T10:18:58.619Z,29.30
2019-01-18T10:21:30.816Z,29.20
2019-01-18T10:24:03.045Z,29.20
2019-01-18T10:26:35.254Z,29.20
2019-01-18T10:29:07.723Z,29.20
2019-01-18T10:31:39.877Z,29.10
2019-01-18T10:34:13.549Z,29.20
2019-01-18T10:36:46.351Z,29.00
2019-01-18T10:39:18.399Z,29.00
2019-01-18T10:41:50.619Z,28.90
2019-01-18T10:44:23.562Z,28.80
2019-01-18T10:46:55.635Z,28.60
2019-01-18T10:49:27.544Z,28.50
2019-01-18T10:51:59.872Z,28.50
2019-01-18T10:54:31.904Z,28.50
2019-01-18T10:57:04.377Z,28.40
2019-01-18T10:59:37.652Z,28.30
2019-01-18T11:02:10.316Z,28.20
2019-01-18T11:04:42.547Z,28.10
2019-01-18T11:07:14.609Z,28.10
2019-01-18T11:09:46.518Z,27.90
2019-01-18T11:12:19.161Z,27.90
2019-01-18T11:14:51.674Z,27.80
2019-01-18T11:17:23.718Z,27.80
2019-01-18T11:19:57.694Z,27.70
2019-01-18T11:22:29.862Z,27.60
2019-01-18T11:25:01.812Z,27.60
2019-01-18T11:27:33.940Z,27.60
2019-01-18T11:30:08.361Z,27.60
2019-01-18T11:32:40.818Z,27.60
2019-01-18T11:35:12.748Z,27.60
2019-01-18T11:37:45.296Z,27.30
2019-01-18T11:40:19.574Z,27.40
2019-01-18T11:42:52.096Z,27.50
2019-01-18T11:45:24.108Z,27.50
2019-01-18T11:47:56.951Z,27.50
2019-01-18T11:50:29.990Z,27.40
2019-01-18T11:53:02.552Z,27.40
2019-01-18T11:55:34.590Z,27.30
2019-01-18T11:58:07.110Z,27.30
2019-01-18T12:00:39.180Z,27.30
2019-01-18T12:03:11.327Z,27.30
2019-01-18T12:05:43.476Z,27.30
2019-01-18T12:08:16.851Z,27.10
2019-01-18T12:10:49.712Z,26.80
2019-01-18T12:13:22.377Z,26.80
2019-01-18T12:15:55.125Z,26.50
2019-01-18T12:18:27.072Z,26.60
2019-01-18T12:20:59.475Z,26.80
2019-01-18T12:23:32.940Z,26.70
2019-01-18T12:26:05.427Z,26.60
2019-01-18T12:28:37.493Z,26.60
2019-01-18T12:31:09.610Z,26.50
2019-01-18T12:33:42.312Z,26.50
2019-01-18T12:36:14.475Z,26.40
2019-01-18T12:38:47.145Z,26.40
2019-01-18T12:41:19.469Z,26.40
2019-01-18T12:43:54.180Z,26.40
2019-01-18T12:46:26.276Z,26.40
2019-01-18T12:48:58.569Z,26.10
2019-01-18T12:51:30.652Z,25.90
2019-01-18T12:54:03.537Z,25.90
2019-01-18T12:56:48.157Z,25.70
2019-01-18T12:59:21.910Z,25.80
2019-01-18T13:01:54.487Z,26.20
2019-01-18T13:04:27.080Z,26.10
2019-01-18T13:06:59.313Z,26.10
2019-01-18T13:09:31.351Z,26.10
2019-01-18T13:12:04.679Z,26.00
2019-01-18T13:14:36.882Z,26.00
2019-01-18T13:17:09.629Z,26.00
2019-01-18T13:19:42.159Z,26.10
2019-01-18T13:22:14.867Z,25.90
2019-01-18T13:24:47.469Z,25.90
2019-01-18T13:27:20.452Z,25.90
2019-01-18T13:29:52.864Z,25.80
2019-01-18T13:32:25.226Z,25.80
2019-01-18T13:34:57.420Z,25.70
2019-01-18T13:37:29.460Z,25.70
2019-01-18T13:40:06.078Z,25.80
2019-01-18T13:42:34.889Z,25.80
2019-01-18T13:45:10.009Z,25.80
2019-01-18T13:47:42.467Z,25.90
2019-01-18T13:50:17.134Z,25.60
2019-01-18T13:52:49.163Z,25.40
2019-01-18T13:55:23.679Z,25.40
2019-01-18T13:57:55.969Z,25.70
2019-01-18T14:00:28.030Z,25.70
2019-01-18T14:03:01.223Z,25.90
2019-01-18T14:05:33.470Z,25.80
2019-01-18T14:08:06.244Z,25.70
2019-01-18T14:10:59.356Z,25.70
2019-01-18T14:13:32.338Z,25.70
2019-01-18T14:16:04.691Z,25.60
2019-01-18T14:18:37.207Z,25.50
2019-01-18T14:21:09.427Z,25.60
2019-01-18T14:23:41.699Z,25.50
2019-01-18T14:26:13.727Z,25.50
2019-01-18T14:28:46.326Z,25.70
2019-01-18T14:31:18.352Z,25.70
2019-01-18T14:34:09.855Z,25.80
2019-01-18T14:36:42.161Z,25.80
2019-01-18T14:39:14.400Z,25.70
2019-01-18T14:41:46.775Z,25.60
2019-01-18T14:44:18.798Z,25.60
2019-01-18T14:46:50.877Z,25.60
2019-01-18T14:49:22.838Z,25.50
2019-01-18T14:51:55.833Z,25.50
2019-01-18T14:54:27.964Z,25.50
2019-01-18T14:57:00.259Z,25.30
2019-01-18T14:59:32.394Z,25.10
2019-01-18T15:02:04.670Z,25.10
2019-01-18T15:04:36.730Z,25.10
2019-01-18T15:07:09.077Z,25.10
2019-01-18T15:09:41.101Z,25.10
2019-01-18T15:12:17.878Z,25.30
2019-01-18T15:14:49.897Z,25.30
2019-01-18T15:17:22.568Z,25.20
2019-01-18T15:19:54.693Z,25.30
2019-01-18T15:22:26.848Z,25.10
2019-01-18T15:24:59.013Z,25.00
2019-01-18T15:27:31.060Z,24.90
2019-01-18T15:30:06.791Z,24.90
2019-01-18T15:32:37.571Z,24.90
2019-01-18T15:35:12.358Z,24.80
2019-01-18T15:37:44.862Z,24.70
2019-01-18T15:40:19.582Z,24.60
2019-01-18T15:42:51.844Z,24.60
2019-01-18T15:45:23.801Z,24.60
2019-01-18T15:47:56.444Z,24.60
2019-01-18T15:50:34.007Z,24.60
2019-01-18T15:53:06.574Z,24.50
2019-01-18T15:55:41.009Z,24.40
2019-01-18T15:58:13.239Z,24.40
2019-01-18T16:00:45.570Z,24.40
2019-01-18T16:03:17.852Z,24.40
2019-01-18T16:05:49.952Z,24.30
2019-01-18T16:08:22.588Z,24.30
2019-01-18T16:10:54.826Z,24.20
2019-01-18T16:13:27.404Z,24.20
2019-01-18T16:16:02.059Z,24.20
2019-01-18T16:18:34.571Z,24.20
2019-01-18T16:21:06.731Z,24.10
2019-01-18T16:23:58.353Z,24.10
2019-01-18T16:26:31.783Z,24.00
2019-01-18T16:29:03.853Z,24.00
2019-01-18T16:31:36.257Z,24.00
2019-01-18T16:34:08.236Z,24.10
2019-01-18T16:36:40.562Z,23.90
2019-01-18T16:39:12.943Z,24.10
2019-01-18T16:41:46.788Z,23.90
2019-01-18T16:44:20.800Z,24.10
2019-01-18T16:46:52.834Z,24.00
2019-01-18T16:49:25.342Z,24.10
2019-01-18T16:51:57.736Z,23.90
2019-01-18T16:54:30.032Z,23.80
2019-01-18T16:57:02.173Z,23.80
2019-01-18T16:59:34.566Z,23.80
2019-01-18T17:02:06.539Z,23.80
2019-01-18T17:04:39.226Z,23.80
2019-01-18T17:07:11.761Z,23.80
2019-01-18T17:09:44.151Z,23.80
2019-01-18T17:12:16.643Z,23.80
2019-01-18T17:14:48.867Z,23.70
2019-01-18T17:17:21.185Z,23.70
2019-01-18T17:19:53.768Z,23.70
2019-01-18T17:22:26.002Z,23.70
2019-01-18T17:24:58.299Z,23.60
2019-01-18T17:27:30.571Z,23.60
2019-01-18T17:30:03.264Z,23.50
2019-01-18T17:32:35.454Z,23.40
2019-01-18T17:35:10.337Z,23.20
2019-01-18T17:37:43.492Z,23.30
2019-01-18T17:40:19.131Z,23.30
2019-01-18T17:42:54.168Z,23.40
2019-01-18T17:45:28.802Z,23.30
2019-01-18T17:48:04.035Z,23.20
2019-01-18T17:50:39.173Z,23.30
2019-01-18T17:53:13.811Z,23.20
2019-01-18T17:55:49.139Z,23.20
2019-01-18T17:58:23.695Z,23.20
2019-01-18T18:00:59.002Z,23.20
2019-01-18T18:03:36.618Z,23.20
2019-01-18T18:06:09.710Z,23.10
2019-01-18T18:08:44.821Z,23.00
2019-01-18T18:11:19.851Z,23.10
2019-01-18T18:13:55.036Z,23.00
2019-01-18T18:16:29.606Z,23.00
2019-01-18T18:19:05.069Z,22.90
2019-01-18T18:21:40.108Z,22.80
2019-01-18T18:24:14.756Z,22.80
2019-01-18T18:26:49.953Z,22.80
2019-01-18T18:29:24.482Z,22.80
2019-01-18T18:31:59.059Z,22.80
2019-01-18T18:34:34.353Z,22.70
2019-01-18T18:37:08.884Z,22.50
2019-01-18T18:39:44.121Z,22.30
2019-01-18T18:42:19.718Z,22.40
2019-01-18T18:44:54.749Z,22.50
2019-01-18T18:47:30.044Z,22.60
2019-01-18T18:50:04.750Z,22.50
2019-01-18T18:52:41.017Z,22.50
2019-01-18T18:55:16.632Z,22.60
2019-01-18T18:57:51.289Z,22.50
2019-01-18T19:00:26.187Z,22.50
2019-01-18T19:03:00.758Z,22.60
2019-01-18T19:05:35.902Z,22.70
2019-01-18T19:08:11.249Z,22.60
2019-01-18T19:10:45.822Z,22.60
2019-01-18T19:13:20.506Z,22.30
2019-01-18T19:15:55.207Z,22.20
2019-01-18T19:18:30.092Z,22.30
2019-01-18T19:21:04.781Z,22.40
2019-01-18T19:23:39.497Z,22.00
2019-01-18T19:26:15.356Z,22.00
2019-01-18T19:28:50.187Z,22.20
2019-01-18T19:31:25.060Z,22.30
2019-01-18T19:34:04.408Z,22.30
2019-01-18T19:36:35.917Z,22.40
2019-01-18T19:39:11.973Z,22.20
2019-01-18T19:41:47.010Z,22.10
2019-01-18T19:44:22.149Z,22.30
2019-01-18T19:46:57.152Z,22.40
2019-01-18T19:49:31.898Z,22.30
2019-01-18T19:52:06.949Z,22.30
2019-01-18T19:54:41.775Z,22.30
2019-01-18T19:57:16.612Z,22.20
2019-01-18T19:59:51.274Z,22.10
2019-01-18T20:02:27.011Z,22.10
2019-01-18T20:05:02.018Z,22.10
2019-01-18T20:07:36.809Z,22.20
2019-01-18T20:10:11.565Z,22.10
2019-01-18T20:12:46.510Z,21.90
2019-01-18T20:15:21.278Z,21.70
2019-01-18T20:17:55.942Z,21.70
2019-01-18T20:20:30.508Z,21.80
2019-01-18T20:23:05.625Z,21.80
2019-01-18T20:25:40.514Z,21.80
2019-01-18T20:28:15.822Z,21.90
2019-01-18T20:30:50.585Z,22.00
2019-01-18T20:33:25.770Z,21.90
2019-01-18T20:36:01.616Z,21.50
2019-01-18T20:38:36.648Z,21.50
2019-01-18T20:41:11.576Z,21.60
2019-01-18T20:43:46.545Z,21.70
2019-01-18T20:46:21.197Z,21.70
2019-01-18T20:48:55.910Z,21.60
2019-01-18T20:51:30.469Z,21.50
2019-01-18T20:54:05.734Z,21.60
2019-01-18T20:56:40.769Z,21.70
2019-01-18T20:59:15.582Z,21.80
2019-01-18T21:01:51.554Z,21.80
2019-01-18T21:04:33.080Z,21.70
2019-01-18T21:07:02.574Z,21.60
2019-01-18T21:09:37.516Z,21.50
2019-01-18T21:12:12.045Z,21.50
2019-01-18T21:14:46.928Z,21.50
2019-01-18T21:17:21.875Z,21.60
2019-01-18T21:19:56.847Z,21.60
2019-01-18T21:22:31.941Z,21.50
2019-01-18T21:25:06.732Z,21.60
2019-01-18T21:27:41.353Z,21.60
2019-01-18T21:30:16.450Z,21.70
2019-01-18T21:32:50.954Z,21.70
2019-01-18T21:35:25.519Z,21.80
2019-01-18T21:38:00.310Z,21.80
2019-01-18T21:40:35.551Z,21.80
2019-01-18T21:43:10.033Z,21.70
2019-01-18T21:45:44.637Z,21.80
2019-01-18T21:48:20.345Z,21.80
2019-01-18T21:50:55.684Z,21.70
2019-01-18T21:53:30.627Z,21.70
2019-01-18T21:56:05.066Z,21.70
2019-01-18T21:58:39.702Z,21.70
2019-01-18T22:01:15.868Z,21.60
2019-01-18T22:03:50.863Z,21.60
2019-01-18T22:06:25.662Z,21.50
2019-01-18T22:09:00.184Z,21.60
2019-01-18T22:11:36.504Z,21.70
2019-01-18T22:14:11.127Z,21.60
2019-01-18T22:16:45.713Z,21.60
2019-01-18T22:19:20.200Z,21.70
2019-01-18T22:21:55.282Z,21.70
2019-01-18T22:24:29.967Z,21.70
2019-01-18T22:27:04.581Z,21.60
2019-01-18T22:29:39.599Z,21.50
2019-01-18T22:32:14.706Z,21.60
2019-01-18T22:34:49.954Z,21.60
2019-01-18T22:37:24.510Z,21.60
2019-01-18T22:39:59.399Z,21.60
2019-01-18T22:42:34.337Z,21.50
2019-01-18T22:45:09.470Z,21.60
2019-01-18T22:47:45.212Z,21.60
2019-01-18T22:50:19.877Z,21.60
2019-01-18T22:52:54.664Z,21.60
2019-01-18T22:55:29.715Z,21.60
2019-01-18T22:58:04.444Z,21.60
2019-01-18T23:00:40.809Z,21.70
2019-01-18T23:03:17.587Z,21.70
2019-01-18T23:05:52.487Z,21.60
2019-01-18T23:08:26.926Z,21.60
2019-01-18T23:11:03.198Z,21.50
2019-01-18T23:13:38.132Z,21.50
2019-01-18T23:16:13.887Z,21.50
2019-01-18T23:18:48.489Z,21.40
2019-01-18T23:21:24.337Z,21.40
2019-01-18T23:23:59.151Z,21.30
2019-01-18T23:26:34.540Z,21.30
2019-01-18T23:29:09.009Z,21.40
2019-01-18T23:31:44.095Z,21.40
2019-01-18T23:34:18.810Z,21.50
2019-01-18T23:36:53.659Z,21.50
2019-01-18T23:39:28.540Z,21.40
2019-01-18T23:42:03.617Z,21.40
2019-01-18T23:44:38.489Z,21.40
2019-01-18T23:47:13.231Z,21.30
2019-01-18T23:49:47.871Z,21.20
2019-01-18T23:52:22.840Z,21.30
2019-01-18T23:54:57.431Z,21.40
2019-01-18T23:57:32.079Z,21.30
